Time;durP1;ratioP1;P1;durP2;ratioP2;P2;SDS_P1;SDS_P2;PMS_P1;PMS_P2;Temp;Humidity;BMP_temperature;BMP_pressure;BME280_temperature;BME280_humidity;BME280_pressure;Samples;Min_cycle;Max_cycle;Signal;HPM_P1;HPM_P2
2022/07/22 00:01:46;;;;;;;8.27;7.67;;;20.00;99.90;;;;;;5010972;28;20256;-58
2022/07/22 00:04:12;;;;;;;8.23;7.43;;;20.00;99.90;;;;;;5005967;28;20229;-57
2022/07/22 00:06:37;;;;;;;8.50;7.80;;;20.00;99.90;;;;;;5011829;28;20293;-57
2022/07/22 00:09:03;;;;;;;8.40;7.77;;;20.00;99.90;;;;;;5012605;28;20199;-57
2022/07/22 00:11:29;;;;;;;9.07;8.25;;;19.90;99.90;;;;;;5012140;28;20179;-58
2022/07/22 00:13:54;;;;;;;8.90;7.50;;;19.90;99.90;;;;;;5026796;28;20223;-58
2022/07/22 00:16:20;;;;;;;8.43;7.73;;;19.90;99.90;;;;;;5014675;28;20303;-58
2022/07/22 00:18:46;;;;;;;8.63;7.80;;;19.90;99.90;;;;;;5009550;28;20189;-58
2022/07/22 00:21:12;;;;;;;8.32;7.63;;;19.80;99.90;;;;;;5010074;28;20185;-58
2022/07/22 00:23:38;;;;;;;8.20;7.50;;;19.80;99.90;;;;;;5011997;28;20187;-58
2022/07/22 00:26:03;;;;;;;7.83;7.20;;;19.80;99.90;;;;;;5011741;28;20210;-57
2022/07/22 00:28:29;;;;;;;8.40;7.80;;;19.80;99.90;;;;;;5011704;28;20190;-59
2022/07/22 00:30:55;;;;;;;9.03;8.23;;;19.80;99.90;;;;;;5011905;28;20640;-59
2022/07/22 00:33:20;;;;;;;8.27;7.60;;;19.80;99.90;;;;;;5013100;28;20179;-57
2022/07/22 00:35:46;;;;;;;8.63;7.80;;;19.70;99.90;;;;;;5025909;28;20281;-58
2022/07/22 00:38:12;;;;;;;9.10;8.30;;;19.70;99.90;;;;;;5011318;28;20179;-57
2022/07/22 00:40:37;;;;;;;9.13;8.10;;;19.70;99.90;;;;;;5010304;28;20195;-58
2022/07/22 00:43:03;;;;;;;8.03;7.37;;;19.60;99.90;;;;;;5011911;28;20191;-59
2022/07/22 00:45:28;;;;;;;8.50;7.73;;;19.60;99.90;;;;;;5011438;28;20233;-59
2022/07/22 00:47:54;;;;;;;8.40;7.70;;;19.90;99.90;;;;;;5009014;28;20226;-58
2022/07/22 00:50:20;;;;;;;8.60;7.77;;;19.50;99.90;;;;;;5011172;28;20270;-57
2022/07/22 00:52:47;;;;;;;8.60;7.90;;;19.50;99.90;;;;;;5011745;28;20582;-58
2022/07/22 00:55:13;;;;;;;8.45;7.75;;;19.40;99.90;;;;;;5011392;28;20193;-58
2022/07/22 00:57:39;;;;;;;8.38;7.60;;;19.40;99.90;;;;;;5010580;28;20207;-58
2022/07/22 01:00:09;;;;;;;8.60;7.80;;;19.30;99.90;;;;;;5008877;28;20808;-58
2022/07/22 01:02:34;;;;;;;10.80;8.32;;;19.30;99.90;;;;;;5011132;28;20622;-59
2022/07/22 01:05:00;;;;;;;8.57;7.67;;;19.30;99.90;;;;;;5010487;28;20215;-59
2022/07/22 01:07:25;;;;;;;8.87;8.10;;;19.20;99.90;;;;;;5010710;28;20207;-58
2022/07/22 01:09:51;;;;;;;9.10;8.30;;;19.20;99.90;;;;;;5011057;28;20274;-58
2022/07/22 01:12:16;;;;;;;8.10;7.40;;;19.30;99.90;;;;;;5011077;28;20644;-59
2022/07/22 01:14:42;;;;;;;8.03;7.20;;;19.20;99.90;;;;;;5010966;28;20191;-59
2022/07/22 01:17:08;;;;;;;8.80;8.00;;;19.20;99.90;;;;;;5009738;28;20282;-59
2022/07/22 01:19:35;;;;;;;7.90;7.30;;;19.10;99.90;;;;;;5006091;28;20190;-59
2022/07/22 01:22:01;;;;;;;8.32;7.60;;;19.10;99.90;;;;;;5010276;28;20212;-58
2022/07/22 01:24:27;;;;;;;8.57;7.80;;;19.00;99.90;;;;;;5011936;28;20655;-58
2022/07/22 01:26:52;;;;;;;9.50;8.30;;;19.00;99.90;;;;;;5010615;28;20199;-59
2022/07/22 01:29:18;;;;;;;8.50;7.70;;;19.00;99.90;;;;;;5009965;28;20194;-58
2022/07/22 01:31:43;;;;;;;8.10;7.17;;;19.00;99.90;;;;;;5010981;28;20190;-58
2022/07/22 01:34:09;;;;;;;9.50;8.70;;;19.00;99.90;;;;;;5011163;28;20589;-57
2022/07/22 01:36:35;;;;;;;9.27;8.40;;;18.70;99.90;;;;;;5009519;28;20215;-58
2022/07/22 01:39:01;;;;;;;9.32;8.35;;;18.90;99.90;;;;;;5010514;28;20179;-57
2022/07/22 01:41:26;;;;;;;8.20;7.60;;;18.90;99.90;;;;;;5010138;28;20237;-57
2022/07/22 01:43:52;;;;;;;9.07;8.37;;;18.90;99.90;;;;;;5009795;28;20613;-58
2022/07/22 01:46:18;;;;;;;8.77;8.07;;;18.90;99.90;;;;;;5010504;28;20210;-58
2022/07/22 01:48:44;;;;;;;9.00;8.30;;;18.90;99.90;;;;;;5010689;28;20182;-58
2022/07/22 01:51:10;;;;;;;7.97;7.30;;;18.90;99.90;;;;;;5009906;28;20183;-58
2022/07/22 01:53:35;;;;;;;8.47;7.73;;;18.90;99.90;;;;;;5010684;28;20194;-58
2022/07/22 01:56:01;;;;;;;8.97;8.03;;;18.90;99.90;;;;;;5010209;28;20249;-57
2022/07/22 01:58:26;;;;;;;8.87;8.13;;;18.80;99.90;;;;;;5009687;28;20254;-56
2022/07/22 02:00:52;;;;;;;9.00;8.20;;;18.80;99.90;;;;;;5008946;28;20175;-57
2022/07/22 02:03:18;;;;;;;8.63;7.85;;;18.80;99.90;;;;;;5010223;28;20203;-57
2022/07/22 02:05:45;;;;;;;8.80;8.10;;;18.80;99.90;;;;;;5009762;28;20735;-57
2022/07/22 02:08:10;;;;;;;8.75;8.07;;;18.80;99.90;;;;;;5010433;28;20178;-57
2022/07/22 02:10:37;;;;;;;9.37;8.57;;;18.80;99.90;;;;;;5010269;28;20682;-58
2022/07/22 02:13:03;;;;;;;8.90;8.10;;;18.70;99.90;;;;;;5009344;28;20174;-57
2022/07/22 02:15:29;;;;;;;10.32;9.52;;;18.70;99.90;;;;;;5013521;28;20316;-58
2022/07/22 02:17:55;;;;;;;7.93;7.33;;;18.70;99.90;;;;;;5009606;28;20297;-58
2022/07/22 02:20:21;;;;;;;8.65;8.02;;;18.70;99.90;;;;;;5005113;28;20218;-57
2022/07/22 02:22:46;;;;;;;8.93;8.07;;;18.70;99.90;;;;;;5009899;28;20221;-58
2022/07/22 02:25:12;;;;;;;9.70;8.90;;;18.70;99.90;;;;;;5006642;28;20465;-58
2022/07/22 02:27:39;;;;;;;8.90;8.17;;;18.60;99.90;;;;;;5010149;28;20203;-58
2022/07/22 02:30:06;;;;;;;8.65;8.00;;;18.60;99.90;;;;;;5010444;28;20434;-58
2022/07/22 02:32:32;;;;;;;8.23;7.53;;;18.60;99.90;;;;;;5009137;28;20225;-57
2022/07/22 02:34:57;;;;;;;10.60;9.57;;;19.10;99.90;;;;;;5009875;28;20187;-58
2022/07/22 02:37:23;;;;;;;8.90;8.10;;;18.60;99.90;;;;;;5008745;28;20472;-57
2022/07/22 02:39:49;;;;;;;9.63;8.83;;;18.50;99.90;;;;;;5009213;28;20194;-58
2022/07/22 02:42:14;;;;;;;8.70;8.00;;;18.60;99.90;;;;;;5009195;28;20195;-59
2022/07/22 02:44:40;;;;;;;8.13;7.53;;;18.60;99.90;;;;;;5009256;28;20696;-59
2022/07/22 02:47:06;;;;;;;9.63;8.00;;;18.60;99.90;;;;;;5007984;28;20218;-57
2022/07/22 02:49:31;;;;;;;8.93;8.23;;;18.60;99.90;;;;;;5012718;28;20826;-57
2022/07/22 02:51:57;;;;;;;8.80;8.10;;;18.50;99.90;;;;;;5025039;28;20233;-57
2022/07/22 02:54:22;;;;;;;9.13;8.33;;;18.50;99.90;;;;;;5009767;28;20191;-57
2022/07/22 02:56:48;;;;;;;10.10;9.00;;;18.50;99.90;;;;;;5012785;28;20719;-58
2022/07/22 02:59:14;;;;;;;9.00;8.20;;;18.50;99.90;;;;;;5011342;28;20195;-57
2022/07/22 03:01:39;;;;;;;8.80;8.00;;;18.50;99.90;;;;;;5014824;28;20187;-58
2022/07/22 03:04:05;;;;;;;8.67;7.87;;;18.50;99.90;;;;;;5013319;28;20215;-58
2022/07/22 03:06:30;;;;;;;8.73;7.93;;;18.60;99.90;;;;;;5012808;28;20294;-59
2022/07/22 03:08:56;;;;;;;9.00;8.10;;;18.50;99.90;;;;;;5013848;28;20187;-59
2022/07/22 03:11:21;;;;;;;8.73;8.00;;;18.50;99.90;;;;;;5013937;28;20183;-57
2022/07/22 03:13:47;;;;;;;9.20;8.50;;;18.60;99.90;;;;;;5013408;28;20249;-57
2022/07/22 03:16:12;;;;;;;8.77;7.93;;;18.70;99.90;;;;;;5013720;28;20198;-59
2022/07/22 03:18:38;;;;;;;9.37;8.47;;;18.60;99.90;;;;;;5012094;28;20179;-57
2022/07/22 03:21:04;;;;;;;9.43;8.53;;;18.60;99.90;;;;;;5006380;28;20195;-58
2022/07/22 03:23:29;;;;;;;9.60;8.70;;;18.50;99.90;;;;;;5013534;28;20214;-57
2022/07/22 03:25:56;;;;;;;9.47;8.63;;;18.50;99.90;;;;;;5013460;28;20246;-58
2022/07/22 03:28:22;;;;;;;10.15;9.25;;;18.50;99.90;;;;;;5013500;28;20175;-57
2022/07/22 03:30:47;;;;;;;10.20;9.40;;;18.50;99.90;;;;;;5012631;28;20183;-59
2022/07/22 03:33:13;;;;;;;10.53;9.57;;;18.50;99.90;;;;;;5011411;28;20194;-57
2022/07/22 03:35:38;;;;;;;9.57;8.87;;;18.50;99.90;;;;;;5014832;28;20202;-58
2022/07/22 03:38:04;;;;;;;9.63;8.83;;;18.40;99.90;;;;;;5012978;28;20283;-58
2022/07/22 03:40:30;;;;;;;9.97;8.97;;;18.70;99.90;;;;;;5012824;28;20591;-59
2022/07/22 03:42:55;;;;;;;9.40;8.43;;;18.50;99.90;;;;;;5012532;28;20205;-58
2022/07/22 03:45:21;;;;;;;11.27;9.70;;;18.50;99.90;;;;;;5012137;28;20237;-57
2022/07/22 03:47:46;;;;;;;9.70;8.77;;;18.50;99.90;;;;;;5007588;28;20778;-58
2022/07/22 03:50:12;;;;;;;9.43;8.73;;;18.40;99.90;;;;;;5009597;28;20943;-57
2022/07/22 03:52:38;;;;;;;9.83;9.00;;;18.50;99.90;;;;;;5010040;28;20201;-58
2022/07/22 03:55:05;;;;;;;9.80;8.90;;;18.50;99.90;;;;;;5011177;28;20711;-58
2022/07/22 03:57:30;;;;;;;9.85;9.05;;;18.60;99.90;;;;;;5012019;28;20214;-57
2022/07/22 03:59:56;;;;;;;9.70;8.70;;;18.50;99.90;;;;;;5010725;28;20660;-57
2022/07/22 04:02:21;;;;;;;9.93;9.10;;;18.50;99.90;;;;;;5009911;28;20277;-58
2022/07/22 04:04:47;;;;;;;9.57;8.70;;;18.40;99.90;;;;;;5008701;28;20640;-58
2022/07/22 04:07:12;;;;;;;11.13;10.00;;;18.40;99.90;;;;;;5009905;28;20676;-57
2022/07/22 04:09:38;;;;;;;10.60;9.47;;;18.40;99.90;;;;;;5011254;28;20175;-58
2022/07/22 04:12:04;;;;;;;10.73;9.77;;;18.50;99.90;;;;;;5010616;28;20714;-59
2022/07/22 04:14:29;;;;;;;10.05;9.20;;;18.40;99.90;;;;;;5009924;28;20195;-58
2022/07/22 04:16:55;;;;;;;10.53;9.50;;;18.30;99.90;;;;;;5009963;28;20719;-59
2022/07/22 04:19:21;;;;;;;10.40;9.37;;;18.30;99.90;;;;;;5007847;28;20221;-58
2022/07/22 04:21:46;;;;;;;11.07;9.97;;;18.30;99.90;;;;;;5005854;28;20266;-58
2022/07/22 04:24:12;;;;;;;10.33;9.33;;;18.40;99.90;;;;;;5010171;28;20664;-59
2022/07/22 04:26:37;;;;;;;10.60;9.70;;;18.50;99.90;;;;;;5012527;28;20206;-59
2022/07/22 04:29:04;;;;;;;10.67;9.83;;;18.60;99.90;;;;;;5009898;28;20179;-59
2022/07/22 04:31:30;;;;;;;10.43;9.63;;;18.60;99.90;;;;;;5006736;28;20541;-59
2022/07/22 04:33:57;;;;;;;9.70;8.60;;;18.60;99.90;;;;;;5008538;28;20191;-59
2022/07/22 04:36:23;;;;;;;10.57;9.68;;;18.70;99.90;;;;;;5006914;28;20203;-59
2022/07/22 04:38:49;;;;;;;10.40;9.30;;;18.90;99.90;;;;;;5009781;28;20214;-55
2022/07/22 04:41:15;;;;;;;11.00;9.45;;;18.70;99.90;;;;;;5025081;28;20566;-54
2022/07/22 04:43:40;;;;;;;11.03;10.07;;;19.00;99.90;;;;;;5009255;28;20194;-54
2022/07/22 04:46:06;;;;;;;9.90;9.07;;;18.80;99.90;;;;;;5009348;28;20667;-54
2022/07/22 04:48:32;;;;;;;11.93;10.40;;;18.90;99.90;;;;;;5013344;28;20593;-54
2022/07/22 04:51:01;;;;;;;11.13;9.97;;;18.80;99.90;;;;;;5006470;28;20188;-58
2022/07/22 04:53:27;;;;;;;11.13;10.13;;;18.80;99.90;;;;;;5005755;28;20179;-55
2022/07/22 04:55:53;;;;;;;11.17;10.17;;;18.80;99.90;;;;;;5009739;28;20590;-55
2022/07/22 04:58:19;;;;;;;11.60;10.60;;;19.00;99.90;;;;;;5008279;28;20191;-55
2022/07/22 05:00:45;;;;;;;10.88;9.98;;;19.10;99.90;;;;;;5008772;28;20446;-55
2022/07/22 05:03:10;;;;;;;10.37;9.53;;;19.20;99.90;;;;;;5008544;28;20186;-56
2022/07/22 05:05:36;;;;;;;11.27;10.20;;;19.30;99.90;;;;;;5009211;28;20206;-55
2022/07/22 05:08:02;;;;;;;12.13;10.90;;;19.40;99.90;;;;;;5008093;28;20199;-56
2022/07/22 05:10:28;;;;;;;11.03;10.03;;;19.50;99.90;;;;;;5007513;28;20279;-56
2022/07/22 05:12:53;;;;;;;11.20;10.10;;;19.50;99.90;;;;;;5008966;28;20478;-56
2022/07/22 05:15:19;;;;;;;10.50;9.50;;;19.60;99.90;;;;;;5008619;28;20183;-56
2022/07/22 05:17:44;;;;;;;12.07;10.83;;;19.80;99.90;;;;;;5009340;28;20211;-56
2022/07/22 05:20:11;;;;;;;12.73;11.57;;;19.90;99.90;;;;;;5008324;28;20656;-56
2022/07/22 05:22:36;;;;;;;12.95;11.75;;;20.00;99.90;;;;;;5006875;28;20213;-56
2022/07/22 05:25:02;;;;;;;13.27;11.97;;;20.10;99.90;;;;;;5004783;28;20684;-56
2022/07/22 05:27:28;;;;;;;11.15;10.15;;;20.20;99.90;;;;;;5007618;28;20210;-56
2022/07/22 05:29:53;;;;;;;11.47;10.30;;;20.20;99.90;;;;;;5006108;28;20257;-56
2022/07/22 05:32:19;;;;;;;14.13;12.37;;;20.40;99.90;;;;;;5008936;28;20181;-56
2022/07/22 05:34:45;;;;;;;14.03;12.60;;;20.20;99.90;;;;;;5007616;28;20187;-56
2022/07/22 05:37:10;;;;;;;12.20;11.03;;;20.20;99.90;;;;;;5009732;28;20198;-55
2022/07/22 05:39:36;;;;;;;11.57;10.57;;;20.20;99.90;;;;;;5008090;28;20258;-56
2022/07/22 05:42:01;;;;;;;12.13;10.93;;;20.40;99.90;;;;;;5005794;28;20625;-57
2022/07/22 05:44:27;;;;;;;12.00;10.87;;;20.50;99.90;;;;;;5005300;28;20218;-56
2022/07/22 05:46:52;;;;;;;12.87;11.67;;;20.60;99.90;;;;;;5007594;28;20221;-56
2022/07/22 05:49:19;;;;;;;12.50;11.33;;;20.60;99.90;;;;;;5003884;28;20230;-56
2022/07/22 05:51:45;;;;;;;12.77;11.50;;;20.70;99.90;;;;;;5010039;28;20218;-56
2022/07/22 05:54:10;;;;;;;13.13;12.07;;;20.80;99.90;;;;;;5008068;28;20241;-56
2022/07/22 05:56:36;;;;;;;12.80;11.60;;;20.90;99.90;;;;;;5005414;28;20743;-54
2022/07/22 05:59:02;;;;;;;14.10;12.37;;;20.90;99.90;;;;;;5002174;28;20198;-56
2022/07/22 06:01:27;;;;;;;12.20;11.10;;;20.90;99.90;;;;;;5008633;28;20270;-56
2022/07/22 06:03:53;;;;;;;13.20;12.00;;;21.10;99.90;;;;;;5005268;28;20290;-56
2022/07/22 06:06:18;;;;;;;11.43;10.43;;;21.10;99.90;;;;;;4999990;28;20195;-59
2022/07/22 06:08:44;;;;;;;16.50;14.40;;;21.20;99.90;;;;;;5006835;28;20190;-61
2022/07/22 06:11:09;;;;;;;12.87;11.83;;;21.20;99.90;;;;;;5009865;28;20179;-62
2022/07/22 06:13:35;;;;;;;12.43;11.37;;;21.30;99.90;;;;;;5008130;28;20186;-61
2022/07/22 06:16:01;;;;;;;12.90;11.80;;;21.40;99.90;;;;;;5006451;28;20231;-63
2022/07/22 06:18:26;;;;;;;12.77;11.60;;;21.20;99.90;;;;;;5007444;28;20520;-60
2022/07/22 06:20:52;;;;;;;14.27;12.77;;;21.20;99.90;;;;;;5008249;28;20210;-63
2022/07/22 06:23:18;;;;;;;13.60;12.30;;;21.30;99.90;;;;;;5007194;28;20183;-63
2022/07/22 06:25:43;;;;;;;12.93;11.73;;;21.40;99.90;;;;;;5006749;28;20610;-60
2022/07/22 06:28:10;;;;;;;13.17;11.70;;;21.50;99.90;;;;;;5008329;28;20185;-60
2022/07/22 06:30:35;;;;;;;13.97;11.63;;;21.60;99.90;;;;;;5011703;28;20301;-61
2022/07/22 06:33:01;;;;;;;12.93;11.73;;;21.70;99.90;;;;;;5013136;28;20437;-59
2022/07/22 06:35:27;;;;;;;12.80;11.70;;;21.70;99.90;;;;;;5013722;28;20186;-61
2022/07/22 06:37:52;;;;;;;11.37;10.43;;;21.70;99.90;;;;;;5015209;28;20213;-59
2022/07/22 06:40:18;;;;;;;12.77;11.10;;;21.50;99.90;;;;;;5014362;28;20205;-59
2022/07/22 06:42:44;;;;;;;11.63;10.53;;;21.90;99.90;;;;;;5012908;28;21788;-59
2022/07/22 06:45:10;;;;;;;14.13;12.77;;;22.00;99.90;;;;;;5012765;28;20239;-60
2022/07/22 06:47:36;;;;;;;11.70;10.67;;;22.10;99.90;;;;;;5016539;28;20353;-60
2022/07/22 06:50:07;;;;;;;13.53;12.30;;;22.20;99.90;;;;;;5008944;28;20465;-59
2022/07/22 06:52:32;;;;;;;12.50;11.37;;;22.50;99.90;;;;;;5028599;28;20445;-60
2022/07/22 06:54:58;;;;;;;11.70;10.70;;;22.70;99.90;;;;;;5016597;28;20445;-60
2022/07/22 06:57:24;;;;;;;11.70;10.60;;;23.30;99.90;;;;;;5015663;28;20226;-62
2022/07/22 06:59:50;;;;;;;12.67;11.43;;;23.30;99.90;;;;;;5011427;28;20205;-61
2022/07/22 07:02:15;;;;;;;12.30;11.13;;;23.20;99.90;;;;;;5010519;28;20199;-58
2022/07/22 07:04:41;;;;;;;12.47;11.27;;;23.40;99.90;;;;;;5017150;28;20520;-60
2022/07/22 07:07:07;;;;;;;13.03;11.93;;;23.50;99.90;;;;;;5014300;28;20238;-59
2022/07/22 07:09:33;;;;;;;12.30;11.20;;;23.40;99.70;;;;;;5015118;28;20667;-60
2022/07/22 07:11:59;;;;;;;13.80;12.53;;;23.80;99.50;;;;;;5014672;28;20448;-60
2022/07/22 07:14:24;;;;;;;11.30;10.20;;;24.60;98.20;;;;;;5015189;28;20522;-59
2022/07/22 07:16:50;;;;;;;11.13;10.17;;;26.90;94.70;;;;;;5012309;28;20701;-59
2022/07/22 07:19:15;;;;;;;12.43;11.20;;;29.70;87.80;;;;;;5013937;28;20214;-60
2022/07/22 07:21:41;;;;;;;11.30;10.40;;;30.10;79.80;;;;;;5014232;28;20204;-60
2022/07/22 07:24:06;;;;;;;11.93;11.03;;;32.40;72.80;;;;;;5006966;28;20284;-59
2022/07/22 07:26:32;;;;;;;11.70;10.67;;;33.70;68.10;;;;;;5014637;28;20209;-61
2022/07/22 07:28:58;;;;;;;11.90;10.70;;;32.90;67.00;;;;;;5015069;28;20190;-61
2022/07/22 07:31:23;;;;;;;10.03;9.33;;;33.60;65.50;;;;;;5014193;28;20284;-60
2022/07/22 07:33:50;;;;;;;9.80;9.10;;;36.20;58.70;;;;;;5014255;28;20206;-59
2022/07/22 07:36:16;;;;;;;11.13;10.00;;;37.80;54.30;;;;;;5009722;28;20211;-60
2022/07/22 07:38:42;;;;;;;11.70;10.67;;;38.30;50.80;;;;;;5014128;28;20460;-60
2022/07/22 07:41:08;;;;;;;11.60;10.50;;;36.80;50.60;;;;;;5012002;28;20198;-61
2022/07/22 07:43:33;;;;;;;10.73;10.00;;;37.70;50.30;;;;;;5006288;28;20468;-61
2022/07/22 07:45:59;;;;;;;10.00;9.30;;;38.50;49.30;;;;;;5007564;28;20304;-61
2022/07/22 07:48:25;;;;;;;10.23;9.40;;;39.50;47.60;;;;;;5011710;28;20213;-60
2022/07/22 07:50:50;;;;;;;10.80;10.00;;;37.40;48.80;;;;;;5007736;28;20226;-60
2022/07/22 07:53:16;;;;;;;10.73;10.00;;;36.90;50.20;;;;;;5009907;28;20190;-60
2022/07/22 07:55:42;;;;;;;10.70;9.77;;;38.00;47.90;;;;;;5008264;28;20191;-59
2022/07/22 07:58:08;;;;;;;8.87;8.27;;;39.10;46.80;;;;;;5010108;28;20876;-61
2022/07/22 08:00:34;;;;;;;11.60;10.60;;;39.50;46.00;;;;;;5007838;28;20261;-60
2022/07/22 08:03:00;;;;;;;12.13;10.00;;;38.50;45.20;;;;;;5010014;28;20367;-60
2022/07/22 08:05:26;;;;;;;10.70;9.67;;;38.70;46.40;;;;;;5005980;28;20514;-59
2022/07/22 08:07:51;;;;;;;11.87;11.10;;;39.40;45.30;;;;;;5009994;28;20559;-59
2022/07/22 08:10:18;;;;;;;10.67;9.90;;;38.10;44.40;;;;;;5005186;28;20317;-60
2022/07/22 08:12:43;;;;;;;10.73;10.03;;;38.80;46.10;;;;;;5009786;28;20217;-59
2022/07/22 08:15:10;;;;;;;10.17;9.37;;;38.40;46.10;;;;;;5011809;28;20434;-58
2022/07/22 08:17:38;;;;;;;11.57;10.77;;;40.30;44.30;;;;;;5003613;28;20239;-58
2022/07/22 08:20:07;;;;;;;12.07;10.07;;;39.30;43.40;;;;;;5011223;28;20460;-58
2022/07/22 08:22:33;;;;;;;12.80;10.60;;;38.40;45.80;;;;;;5011834;28;20822;-58
2022/07/22 08:24:59;;;;;;;11.73;10.90;;;40.10;44.00;;;;;;5011015;28;20469;-58
2022/07/22 08:27:25;;;;;;;11.30;10.30;;;38.40;45.20;;;;;;5010472;28;20207;-58
2022/07/22 08:29:50;;;;;;;12.00;10.90;;;38.30;45.70;;;;;;5010943;28;20434;-58
2022/07/22 08:32:16;;;;;;;11.80;10.60;;;39.90;44.00;;;;;;5011413;28;20205;-58
2022/07/22 08:34:42;;;;;;;11.33;10.50;;;41.00;42.30;;;;;;5009373;28;20187;-57
2022/07/22 08:37:07;;;;;;;10.43;9.63;;;41.20;41.80;;;;;;5010831;28;20313;-58
2022/07/22 08:39:34;;;;;;;10.27;9.57;;;41.50;40.70;;;;;;5011199;28;20194;-58
2022/07/22 08:42:00;;;;;;;10.63;9.93;;;41.30;41.20;;;;;;5026517;28;20260;-58
2022/07/22 08:44:30;;;;;;;13.47;12.17;;;41.70;40.10;;;;;;5010624;28;20508;-57
2022/07/22 08:46:56;;;;;;;16.33;15.13;;;42.40;39.60;;;;;;5026579;28;20865;-57
2022/07/22 08:49:21;;;;;;;10.40;9.60;;;39.70;41.70;;;;;;5011135;28;20441;-57
2022/07/22 08:51:47;;;;;;;11.13;10.37;;;41.40;40.70;;;;;;5010421;28;20233;-58
2022/07/22 08:54:13;;;;;;;11.27;10.37;;;42.10;39.40;;;;;;5010725;28;20195;-59
2022/07/22 08:56:39;;;;;;;11.30;10.37;;;42.80;38.30;;;;;;5010705;28;20285;-58
2022/07/22 08:59:04;;;;;;;10.73;9.93;;;43.10;37.70;;;;;;5026694;28;20210;-58
2022/07/22 09:01:30;;;;;;;10.90;10.10;;;42.60;37.80;;;;;;4999928;28;20706;-58
2022/07/22 09:03:57;;;;;;;10.80;9.90;;;42.60;37.80;;;;;;5023657;28;20194;-59
2022/07/22 09:06:26;;;;;;;11.77;10.87;;;43.50;37.00;;;;;;5002930;28;20207;-58
2022/07/22 09:09:00;;;;;;;10.73;9.93;;;42.30;36.50;;;;;;5009047;28;20434;-58
2022/07/22 09:11:28;;;;;;;11.13;10.33;;;41.40;38.50;;;;;;5010451;28;20445;-59
2022/07/22 09:13:55;;;;;;;10.87;9.97;;;42.20;37.60;;;;;;5010159;28;20453;-59
2022/07/22 09:16:40;;;;;;;11.60;10.80;;;42.40;37.60;;;;;;5010809;28;20468;-59
2022/07/22 09:19:05;;;;;;;10.53;9.60;;;42.60;37.10;;;;;;5010009;28;20437;-59
2022/07/22 09:21:31;;;;;;;10.20;9.40;;;43.40;36.20;;;;;;5010222;28;20475;-58
2022/07/22 09:23:57;;;;;;;10.10;9.40;;;43.20;35.90;;;;;;5010225;28;20187;-59
2022/07/22 09:26:30;;;;;;;10.97;10.00;;;43.00;36.10;;;;;;5009156;28;20245;-57
2022/07/22 09:28:56;;;;;;;10.63;9.93;;;42.50;36.90;;;;;;5009718;28;20222;-58
2022/07/22 09:31:27;;;;;;;14.50;13.27;;;43.30;36.20;;;;;;5010305;28;20434;-58
2022/07/22 09:33:53;;;;;;;10.90;10.00;;;43.80;35.40;;;;;;5010070;28;20484;-58
2022/07/22 09:36:19;;;;;;;12.17;11.20;;;42.50;36.10;;;;;;5005645;28;20912;-58
2022/07/22 09:38:45;;;;;;;11.33;10.53;;;41.60;35.80;;;;;;5010399;28;20968;-58
2022/07/22 09:41:11;;;;;;;12.27;11.40;;;41.60;37.50;;;;;;5009871;28;20509;-58
2022/07/22 09:43:37;;;;;;;11.30;10.60;;;42.40;36.80;;;;;;5009514;28;20280;-59
2022/07/22 09:46:04;;;;;;;11.37;10.30;;;42.30;36.50;;;;;;5009507;28;20225;-59
2022/07/22 09:48:30;;;;;;;11.10;10.30;;;41.50;37.10;;;;;;5010062;28;20214;-59
2022/07/22 09:50:56;;;;;;;11.43;10.43;;;42.40;36.50;;;;;;5006151;28;20442;-59
2022/07/22 09:53:24;;;;;;;11.50;9.80;;;42.70;35.80;;;;;;5010947;28;20426;-59
2022/07/22 09:55:50;;;;;;;11.20;10.37;;;42.40;36.20;;;;;;5009748;28;20446;-59
2022/07/22 09:58:16;;;;;;;10.73;9.93;;;41.50;36.00;;;;;;5009219;28;20481;-59
2022/07/22 10:00:43;;;;;;;12.40;11.30;;;41.70;36.50;;;;;;5009740;28;20437;-60
2022/07/22 10:03:16;;;;;;;10.07;9.23;;;42.20;36.50;;;;;;5009958;28;20448;-58
2022/07/22 10:05:43;;;;;;;10.37;9.57;;;42.30;36.10;;;;;;5008191;28;20899;-59
2022/07/22 10:08:09;;;;;;;10.57;9.77;;;42.00;35.30;;;;;;5009327;28;20882;-59
2022/07/22 10:10:36;;;;;;;10.53;9.83;;;40.80;37.00;;;;;;5010477;28;20452;-60
2022/07/22 10:13:03;;;;;;;10.63;9.80;;;40.40;36.60;;;;;;5009883;28;20520;-59
2022/07/22 10:15:31;;;;;;;9.80;9.07;;;40.80;37.70;;;;;;5008544;28;20441;-60
2022/07/22 10:18:03;;;;;;;10.37;9.47;;;41.20;36.50;;;;;;5009662;28;20457;-59
2022/07/22 10:20:30;;;;;;;10.17;9.33;;;39.40;38.70;;;;;;4997385;28;20524;-60
2022/07/22 10:22:57;;;;;;;9.70;9.07;;;39.70;38.60;;;;;;5003617;28;20545;-59
2022/07/22 10:25:25;;;;;;;10.20;9.30;;;39.60;39.20;;;;;;5009315;28;20479;-58
2022/07/22 10:28:04;;;;;;;9.87;9.03;;;39.00;40.10;;;;;;5009160;28;20457;-58
2022/07/22 10:30:35;;;;;;;10.10;9.30;;;38.20;41.10;;;;;;5000924;28;20440;-59
2022/07/22 10:33:03;;;;;;;11.27;10.27;;;37.20;42.90;;;;;;5001479;28;20523;-59
2022/07/22 10:35:30;;;;;;;10.93;10.00;;;35.80;44.50;;;;;;5008487;28;20841;-58
2022/07/22 10:37:57;;;;;;;10.00;9.10;;;35.10;46.50;;;;;;5009205;28;20457;-57
2022/07/22 10:40:31;;;;;;;10.33;9.47;;;34.60;47.70;;;;;;5009237;28;20437;-57
2022/07/22 10:42:57;;;;;;;11.57;10.43;;;33.90;48.60;;;;;;5000037;28;20472;-58
2022/07/22 10:45:40;;;;;;;10.80;9.90;;;32.70;50.40;;;;;;5005565;28;20502;-58
2022/07/22 10:48:11;;;;;;;10.07;9.07;;;32.20;52.40;;;;;;5008917;28;20270;-57
2022/07/22 10:50:37;;;;;;;10.80;9.90;;;32.20;52.90;;;;;;5006522;28;20452;-58
2022/07/22 10:53:09;;;;;;;10.80;10.00;;;32.20;52.80;;;;;;5009369;28;20431;-59
2022/07/22 10:55:36;;;;;;;10.80;9.90;;;32.10;54.00;;;;;;5008152;28;20982;-58
2022/07/22 10:58:33;;;;;;;11.20;10.10;;;32.30;53.80;;;;;;5008797;28;20543;-58
2022/07/22 11:01:01;;;;;;;10.70;10.00;;;31.90;54.20;;;;;;4995658;28;20456;-57
2022/07/22 11:03:29;;;;;;;10.30;9.40;;;32.10;54.60;;;;;;5009482;28;20436;-57
2022/07/22 11:05:56;;;;;;;10.00;9.30;;;32.70;53.70;;;;;;5007701;28;20973;-60
2022/07/22 11:08:22;;;;;;;10.77;9.90;;;34.00;50.90;;;;;;5009184;28;20439;-59
2022/07/22 11:10:49;;;;;;;10.10;9.40;;;34.50;50.00;;;;;;5008967;28;20442;-58
2022/07/22 11:13:40;;;;;;;10.50;9.50;;;35.80;48.10;;;;;;5009166;28;20525;-59
2022/07/22 11:16:23;;;;;;;11.40;10.40;;;37.10;45.50;;;;;;5003674;28;20456;-60
2022/07/22 11:18:53;;;;;;;9.87;9.07;;;38.20;44.20;;;;;;5013511;28;20445;-60
2022/07/22 11:21:21;;;;;;;9.13;8.53;;;38.50;42.60;;;;;;5028179;28;20433;-59
2022/07/22 11:23:48;;;;;;;8.60;8.00;;;39.20;41.40;;;;;;5002473;28;20843;-59
2022/07/22 11:26:16;;;;;;;8.20;7.70;;;39.80;38.30;;;;;;5012083;28;20469;-59
2022/07/22 11:28:43;;;;;;;8.03;7.33;;;39.50;38.50;;;;;;5011833;28;20469;-59
2022/07/22 11:31:13;;;;;;;9.10;8.40;;;39.50;38.70;;;;;;5012384;28;20949;-60
2022/07/22 11:33:38;;;;;;;8.07;7.47;;;39.80;38.20;;;;;;5027392;28;20526;-60
2022/07/22 11:36:12;;;;;;;8.20;7.60;;;40.00;37.00;;;;;;5011797;28;20465;-60
2022/07/22 11:38:42;;;;;;;7.93;7.33;;;40.00;37.20;;;;;;5012234;28;20297;-59
2022/07/22 11:41:08;;;;;;;8.03;7.43;;;39.40;37.90;;;;;;5003671;28;20434;-59
2022/07/22 11:43:52;;;;;;;7.93;7.33;;;39.50;37.10;;;;;;5007102;28;20525;-59
2022/07/22 11:46:18;;;;;;;7.77;7.20;;;40.40;36.60;;;;;;5011267;28;20216;-60
2022/07/22 11:48:44;;;;;;;8.10;7.50;;;39.70;35.90;;;;;;5012369;28;20513;-60
2022/07/22 11:51:11;;;;;;;8.60;7.80;;;39.50;37.20;;;;;;5011166;28;20644;-59
2022/07/22 11:53:38;;;;;;;8.70;8.10;;;39.00;37.90;;;;;;5007369;28;20523;-60
2022/07/22 11:56:06;;;;;;;8.33;7.70;;;37.60;39.50;;;;;;5011407;28;20480;-59
2022/07/22 11:58:43;;;;;;;8.10;7.60;;;37.30;41.20;;;;;;5010529;28;20452;-59
2022/07/22 12:01:12;;;;;;;8.27;7.67;;;36.50;41.20;;;;;;5008373;28;20455;-58
2022/07/22 12:03:45;;;;;;;8.70;8.00;;;35.50;42.80;;;;;;5007215;28;20903;-63
2022/07/22 12:06:14;;;;;;;9.30;8.50;;;35.20;44.00;;;;;;5010934;28;20859;-63
2022/07/22 12:08:42;;;;;;;8.60;8.00;;;34.80;44.30;;;;;;5009862;28;20483;-63
2022/07/22 12:11:09;;;;;;;7.40;6.80;;;34.30;44.10;;;;;;5011656;28;20459;-63
2022/07/22 12:13:35;;;;;;;7.80;7.10;;;33.90;44.50;;;;;;5011253;28;20453;-63
2022/07/22 12:16:35;;;;;;;8.97;8.17;;;33.60;44.50;;;;;;5011442;28;20540;-63
2022/07/22 12:19:05;;;;;;;8.80;8.10;;;33.30;45.90;;;;;;5008553;28;20217;-61
2022/07/22 12:21:33;;;;;;;7.50;7.00;;;33.00;47.00;;;;;;5010464;28;20437;-61
2022/07/22 12:24:05;;;;;;;7.53;7.03;;;33.00;46.90;;;;;;5006606;28;20480;-61
2022/07/22 12:26:46;;;;;;;8.57;7.97;;;32.70;47.40;;;;;;5010660;28;21041;-61
2022/07/22 12:29:20;;;;;;;8.17;7.57;;;32.60;48.10;;;;;;5011229;28;20927;-60
2022/07/22 12:31:55;;;;;;;7.77;7.17;;;32.60;48.20;;;;;;5006848;28;20444;-61
2022/07/22 12:34:33;;;;;;;7.80;7.20;;;32.60;48.70;;;;;;5003403;28;20475;-61
2022/07/22 12:37:02;;;;;;;7.37;6.87;;;32.60;48.40;;;;;;5007514;28;20481;-61